Latest Coastal Weather Observations for Weipa

IDQ60701

Issued at 1:22 am EST Friday 3 February 2023 (issued every 10 minutes, with the page automatically refreshed every 10 minutes)

About coastal observations | Map of coastal stations | Coastal observations for QLD | Marine services | Other Formats
Station Details ID: 027045 Name: WEIPA AERO Lat: -12.68 Lon: 141.92 Height: 17.96 m
Data from the previous 72 hours. | See also: Recent months at Weipa
Date/Time
EST
Wind Sea
Height
m
Swell Vis
km
Cloud Weather Temp
°C
Press
MSL
hPa
Rain since
9am
mm
Dir  Spd
kts
Gust
kts
Height
m
Period
s
Dir
03/01:00am NNW 5 6 - - - - 10 - - 25.5 1003.5 57.6
03/12:30am NNW 5 8 - - - - 10 - - 25.8 1003.8 57.6
03/12:00am WNW 4 6 - - - - 10 Cloudy Rain 25.2 1004.1 57.6
 
Date/Time
EST
Wind Sea
Height
m
Swell Vis
km
Cloud Weather Temp
°C
Press
MSL
hPa
Rain since
9am
mm
Dir  Spd
kts
Gust
kts
Height
m
Period
s
Dir
02/11:30pm CALM 0 0 - - - - 10 - - 24.9 1004.2 57.6
02/11:00pm WSW 3 3 - - - - 10 - - 24.5 1004.4 57.6
02/10:30pm W 4 6 - - - - 10 - - 24.4 1004.9 57.4
02/10:00pm NNW 3 4 - - - - 10 Partly cloudy - 24.5 1005.2 57.2
02/09:30pm NNW 4 5 - - - - 10 Partly cloudy - 24.6 1005.6 56.4
02/09:00pm NW 3 4 - - - - 10 Cloudy Rain 24.5 1005.9 54.6
02/08:44pm NNE 5 7 - - - - 10 Partly cloudy - 24.5 1005.3 54.4
02/08:30pm NNE 5 7 - - - - 4 Partly cloudy - 24.6 1005.8 54.0
02/08:04pm NNW 3 5 - - - - 6 Partly cloudy - 24.5 1006.6 50.0
02/08:00pm N 4 5 - - - - 7 Partly cloudy - 24.5 1006.4 49.6
02/07:30pm N 5 6 - - - - 10 Partly cloudy - 24.6 1005.3 47.4
02/07:22pm N 6 10 - - - - 10 Partly cloudy - 24.6 1005.0 47.0
02/07:00pm NNW 12 16 - - - - 6 Partly cloudy - 24.7 1005.0 45.6
02/06:50pm NNW 11 16 - - - - 5 Partly cloudy - 24.6 1005.0 44.8
02/06:30pm NW 12 17 - - - - 0.9 Partly cloudy - 24.7 1004.8 41.6
02/06:15pm NW 10 19 - - - - 0.5 Partly cloudy - 24.8 1004.8 29.4
02/06:00pm W 10 20 - - - - 1 Cloudy Thunderstorm 25.0 1004.3 8.6
02/05:57pm WNW 8 16 - - - - 2 Partly cloudy - 25.5 1004.2 5.2
02/05:56pm WNW 8 16 - - - - 4 Partly cloudy - 25.8 1004.1 3.8
02/05:55pm WNW 7 11 - - - - 10 Partly cloudy - 26.1 1004.1 2.8
02/05:30pm N 9 13 - - - - 10 Partly cloudy - 26.6 1003.0 1.4
02/05:00pm NNW 11 18 - - - - 10 Partly cloudy - 27.7 1003.0 1.4
02/04:37pm NW 6 10 - - - - 10 Partly cloudy - 28.3 1002.5 1.4
02/04:30pm WNW 6 9 - - - - 10 Partly cloudy - 28.0 1002.5 1.4
02/04:21pm WNW 8 13 - - - - 6 Partly cloudy - 28.0 1002.5 1.4
02/04:00pm WNW 7 11 - - - - 10 Partly cloudy - 28.9 1002.5 0.8
02/03:30pm WNW 8 11 - - - - 10 Partly cloudy - 28.8 1002.5 0.8
02/03:00pm W 9 14 - - - - 10 Mostly cloudy Showers 27.6 1002.9 0.8
02/02:30pm WNW 9 14 - - - - 10 Partly cloudy - 29.7 1003.1 0.6
02/02:00pm WNW 10 19 - - - - 10 Partly cloudy - 30.0 1003.3 0.6
02/01:30pm W 11 17 - - - - 10 Partly cloudy - 29.8 1003.7 0.6
02/01:00pm WNW 11 17 - - - - 10 Partly cloudy - 30.3 1004.1 0.6
02/12:30pm WNW 10 15 - - - - 10 Partly cloudy - 30.2 1004.5 0.6
02/12:00pm WNW 9 14 - - - - 10 Cloudy Showers 29.4 1004.8 0.6
02/11:30am W 11 16 - - - - 10 - - 30.7 1005.2 0.6
02/11:00am W 11 17 - - - - 10 Partly cloudy - 30.2 1005.3 0.6
02/10:30am W 7 11 - - - - 10 Partly cloudy - 30.6 1005.3 0.6
02/10:00am NW 1 4 - - - - 10 Partly cloudy - 29.5 1005.6 0.6
02/09:46am NW 2 4 - - - - 10 Partly cloudy - 28.8 1005.6 0.6
02/09:33am SW 2 5 - - - - 6 Partly cloudy - 28.9 1005.7 0.4
02/09:30am WSW 2 4 - - - - 7 Partly cloudy - 29.0 1005.7 0.4
02/09:00am NNE 1 3 - - - - 10 Cloudy Rain 27.9 1005.7 10.2
02/08:46am NE 4 5 - - - - 10 Partly cloudy - 27.6 1005.9 10.2
02/08:30am E 3 5 - - - - 5 Partly cloudy - 27.2 1005.9 10.2
02/08:29am ENE 3 5 - - - - 5 Partly cloudy - 26.9 1005.9 10.2
02/08:00am E 4 5 - - - - 10 Partly cloudy - 27.1 1006.0 9.4
02/07:32am NE 4 5 - - - - 10 Partly cloudy - 26.9 1005.7 9.4
02/07:30am NE 4 5 - - - - 10 Partly cloudy - 26.9 1005.6 9.4
02/07:09am NE 4 7 - - - - 6 Partly cloudy - 26.8 1005.3 6.6
02/07:00am NE 4 5 - - - - 10 Partly cloudy - 26.8 1005.2 5.0
02/06:30am CALM 0 0 - - - - 10 Partly cloudy - 26.8 1005.0 4.8
02/06:00am CALM 0 0 - - - - 10 Cloudy - 26.9 1004.6 4.8
02/05:30am CALM 0 3 - - - - 10 Partly cloudy - 26.8 1004.4 4.8
02/05:00am CALM 0 0 - - - - 10 Partly cloudy - 27.0 1004.4 4.8
02/04:46am ENE 4 5 - - - - 10 Partly cloudy - 27.0 1004.5 4.8
02/04:36am N 3 4 - - - - 10 Partly cloudy - 26.9 1004.4 4.8
02/04:30am NW 4 5 - - - - 10 Partly cloudy - 26.9 1004.2 4.8
02/04:00am NW 3 4 - - - - 10 Partly cloudy - 26.7 1004.4 4.8
02/03:52am N 2 4 - - - - 10 Partly cloudy - 26.5 1004.3 4.8
02/03:30am NNW 9 14 - - - - 7 Partly cloudy - 26.7 1004.2 3.4
02/03:29am NNW 9 14 - - - - 6 Partly cloudy - 26.7 1004.2 3.4
02/03:00am NNW 3 4 - - - - 10 Cloudy - 26.8 1004.3 2.4
02/02:30am NNW 4 5 - - - - 10 Partly cloudy - 26.5 1004.4 2.4
02/02:06am NW 8 11 - - - - 10 Partly cloudy - 26.6 1004.7 2.4
02/02:00am NW 7 11 - - - - 10 Partly cloudy - 26.8 1004.8 2.4
02/01:56am NNW 6 8 - - - - 10 Partly cloudy - 26.9 1004.8 2.4
02/01:30am NNE 1 3 - - - - 10 - - 26.8 1004.9 2.4
02/01:00am NNE 3 5 - - - - 10 Partly cloudy - 27.0 1005.1 2.4
02/12:30am CALM 0 0 - - - - 10 Partly cloudy - 26.9 1005.4 2.4
02/12:00am ENE 1 3 - - - - 10 Cloudy Showers 27.1 1006.0 2.2
 
Date/Time
EST
Wind Sea
Height
m
Swell Vis
km
Cloud Weather Temp
°C
Press
MSL
hPa
Rain since
9am
mm
Dir  Spd
kts
Gust
kts
Height
m
Period
s
Dir
01/11:30pm NNE 3 5 - - - - 10 Partly cloudy - 27.1 1006.3 2.0
01/11:00pm SW 1 5 - - - - 10 Partly cloudy - 27.2 1006.5 2.0
01/10:30pm SW 2 5 - - - - 10 Partly cloudy - 26.8 1006.4 2.0
01/10:00pm CALM 0 0 - - - - 10 - - 26.8 1006.2 2.0
01/09:30pm NNE 4 5 - - - - 10 - - 26.8 1006.3 2.0
01/09:00pm NNE 4 5 - - - - 10 Cloudy Thunderstorm 27.0 1006.1 2.0
01/08:30pm NNW 3 4 - - - - 10 Partly cloudy - 27.0 1006.0 1.8
01/08:24pm NNW 3 5 - - - - 10 Partly cloudy - 27.1 1005.8 1.8
01/08:08pm W 4 6 - - - - 6 Partly cloudy - 26.9 1005.6 1.8
01/08:00pm SSE 1 6 - - - - 10 Partly cloudy - 27.0 1005.7 1.0
01/07:30pm CALM 0 0 - - - - 10 - - 26.9 1005.3 1.0
01/07:00pm N 3 5 - - - - 10 Partly cloudy - 26.9 1004.9 1.0
01/06:50pm SW 1 4 - - - - 10 Partly cloudy - 26.9 1004.8 0.8
01/06:33pm SW 7 10 - - - - 6 Partly cloudy - 27.1 1005.0 0.6
01/06:30pm SSW 7 13 - - - - 10 Partly cloudy - 27.5 1005.1 0.2
01/06:00pm W 7 13 - - - - 10 Mostly clear Rain 29.5 1004.4 0.0
01/05:30pm W 9 15 - - - - 10 Partly cloudy - 29.0 1003.8 0.0
01/05:00pm W 9 12 - - - - 10 Partly cloudy - 30.3 1004.0 0.0
01/04:30pm W 12 17 - - - - 10 - - 30.8 1003.7 0.0
01/04:00pm W 10 17 - - - - 10 Partly cloudy - 30.1 1003.9 0.0
01/03:30pm W 10 17 - - - - 10 Partly cloudy - 30.7 1004.2 0.0
01/03:00pm W 11 16 - - - - 10 Mostly clear - 31.6 1004.3 0.0
01/02:30pm W 11 17 - - - - 10 - - 31.6 1004.8 0.0
01/02:00pm W 11 17 - - - - 10 - - 31.4 1005.4 0.0
01/01:30pm W 12 17 - - - - 10 - - 31.4 1005.5 0.0
01/01:00pm W 10 15 - - - - 10 - - 31.3 1006.1 0.0
01/12:30pm W 11 16 - - - - 10 - - 31.3 1006.7 0.0
01/12:00pm W 10 15 - - - - 10 - - 31.0 1006.9 0.0
01/11:30am W 10 14 - - - - 10 - - 30.9 1007.3 0.0
01/11:00am W 9 13 - - - - 10 - - 30.8 1007.5 0.0
01/10:30am W 7 10 - - - - 10 Partly cloudy - 30.5 1007.6 0.0
01/10:00am WNW 7 11 - - - - 10 Partly cloudy - 30.5 1007.7 0.0
01/09:30am WNW 7 10 - - - - 10 Partly cloudy - 29.5 1007.9 0.0
01/09:08am NW 7 10 - - - - 8 Partly cloudy - 29.3 1007.5 0.0
01/09:07am NW 7 10 - - - - 8 Partly cloudy - 29.6 1007.5 0.0
01/09:00am NW 7 9 - - - - 7 Cloudy - 29.2 1007.5 0.0
01/08:48am NNW 5 9 - - - - 6 Partly cloudy - 28.8 1007.3 0.0
01/08:43am NNW 3 6 - - - - 10 Partly cloudy - 28.5 1007.3 0.0
01/08:30am NW 3 5 - - - - 8 Partly cloudy - 28.3 1007.1 0.0
01/08:00am NW 4 5 - - - - 10 - - 27.4 1006.7 0.0
01/07:30am N 3 5 - - - - 10 - - 26.2 1006.4 0.0
01/07:00am CALM 0 0 - - - - 10 - - 25.4 1006.2 0.0
01/06:30am CALM 0 0 - - - - 10 - - 25.0 1006.0 0.0
01/06:00am CALM 0 0 - - - - 10 - - 25.1 1005.6 0.0
01/05:30am NNE 3 4 - - - - 10 - - 25.1 1005.4 0.0
01/05:00am NNE 3 4 - - - - 10 - - 25.2 1005.3 0.0
01/04:52am NNE 2 4 - - - - 10 Partly cloudy - 25.2 1005.3 0.0
01/04:47am NNE 3 4 - - - - 10 Partly cloudy - 25.2 1005.3 0.0
01/04:34am ENE 3 4 - - - - 1 Partly cloudy - 25.3 1005.3 0.0
01/04:30am E 2 4 - - - - 0.5 Partly cloudy - 25.3 1005.2 0.0
01/04:20am ESE 3 4 - - - - 0.8 Partly cloudy - 25.2 1005.3 0.0
01/04:16am ESE 3 4 - - - - 6 Partly cloudy - 25.2 1005.3 0.0
01/04:00am SSE 3 4 - - - - 10 - - 25.0 1005.5 0.0
01/03:30am ENE 3 4 - - - - 10 - - 25.6 1005.4 0.0
01/03:00am NNE 1 3 - - - - 10 - - 25.5 1005.5 0.0
01/02:30am N 1 3 - - - - 10 - - 25.6 1005.7 0.0
01/02:00am E 4 5 - - - - 10 - - 25.6 1005.9 0.0
01/01:30am E 5 5 - - - - 10 - - 25.6 1006.4 0.0
01/01:00am SSE 2 4 - - - - 10 - - 25.4 1006.9 0.0
01/12:30am CALM 0 0 - - - - 10 - - 25.7 1007.3 0.0
01/12:00am N 2 4 - - - - 10 - - 25.8 1007.6 0.0
 
Date/Time
EST
Wind Sea
Height
m
Swell Vis
km
Cloud Weather Temp
°C
Press
MSL
hPa
Rain since
9am
mm
Dir  Spd
kts
Gust
kts
Height
m
Period
s
Dir
31/11:30pm N 4 5 - - - - 10 - - 26.0 1007.7 0.0
31/11:00pm N 2 4 - - - - 10 - - 26.2 1007.1 0.0
31/10:30pm NE 4 6 - - - - 10 - - 26.5 1007.0 0.0
31/10:00pm NNE 4 6 - - - - 10 - - 26.5 1007.1 0.0
31/09:30pm N 2 5 - - - - 10 - - 27.1 1007.1 0.0
31/09:00pm CALM 0 0 - - - - 10 Mostly clear - 27.6 1007.1 0.0
31/08:30pm CALM 0 0 - - - - 10 Partly cloudy - 27.4 1007.0 0.0
31/08:00pm CALM 0 2 - - - - 10 - - 27.3 1006.7 0.0
31/07:30pm WNW 4 6 - - - - 10 - - 27.3 1006.3 0.0
31/07:00pm WNW 4 5 - - - - 10 - - 27.7 1005.6 0.0
31/06:30pm W 4 5 - - - - 10 - - 28.0 1005.6 0.0
31/06:00pm NW 7 9 - - - - 10 Mostly clear - 28.9 1005.0 0.0
31/05:30pm WNW 8 11 - - - - 10 Partly cloudy - 28.6 1004.8 0.0
31/05:00pm W 9 13 - - - - 10 Partly cloudy - 29.4 1004.9 0.0
31/04:30pm W 11 17 - - - - 10 Partly cloudy - 28.9 1004.6 0.0
31/04:00pm WNW 11 17 - - - - 10 Partly cloudy - 29.8 1004.5 0.0
31/03:30pm WNW 10 14 - - - - 10 Partly cloudy - 30.5 1004.9 0.0
31/03:00pm NW 12 15 - - - - 10 Partly cloudy - 31.1 1005.0 0.0
31/02:30pm NW 12 17 - - - - 10 Partly cloudy - 31.2 1005.4 0.0
31/02:00pm WNW 10 16 - - - - 10 Partly cloudy - 29.3 1005.8 0.0
31/01:30pm WNW 11 16 - - - - 10 Partly cloudy - 30.7 1006.1 0.0
31/01:00pm W 11 16 - - - - 10 Partly cloudy - 30.6 1006.4 0.0
31/12:30pm SSW 5 8 - - - - 10 Partly cloudy - 32.5 1006.8 0.0
31/12:00pm ENE 4 7 - - - - 10 Mostly clear - 32.4 1007.2 0.0
31/11:30am NE 4 7 - - - - 10 Partly cloudy - 31.3 1007.8 0.0
31/11:00am NNE 5 9 - - - - 10 Partly cloudy - 31.3 1008.1 0.0
31/10:30am NNE 5 8 - - - - 10 Partly cloudy - 30.6 1008.2 0.0
31/10:00am ENE 5 8 - - - - 10 Partly cloudy - 30.0 1008.6 0.0
31/09:30am NE 6 8 - - - - 10 Partly cloudy - 29.6 1008.5 0.0
31/09:00am E 5 7 - - - - 10 Mostly clear - 28.8 1008.4 0.2
31/08:30am E 5 6 - - - - 10 - - 27.8 1008.3 0.2
31/08:00am NE 4 5 - - - - 10 - - 27.3 1008.2 0.2
31/07:30am CALM 0 0 - - - - 10 Partly cloudy - 26.5 1008.0 0.2
31/07:00am CALM 0 0 - - - - 10 Partly cloudy - 26.0 1007.7 0.2
31/06:30am CALM 0 0 - - - - 10 Partly cloudy - 25.4 1007.2 0.2
31/06:00am CALM 0 0 - - - - 10 Mostly clear - 25.7 1007.1 0.2
31/05:30am CALM 0 0 - - - - 10 - - 25.6 1006.6 0.2
31/05:00am CALM 0 2 - - - - 10 Partly cloudy - 25.7 1006.4 0.2
31/04:30am S 4 6 - - - - 10 Partly cloudy - 25.6 1006.3 0.2
31/04:00am CALM 0 0 - - - - 10 Partly cloudy - 26.2 1005.8 0.2
31/03:30am CALM 0 0 - - - - 10 Partly cloudy - 26.1 1005.8 0.2
31/03:00am CALM 0 0 - - - - 10 Mostly cloudy - 26.2 1005.9 0.2
31/02:30am NE 1 4 - - - - 10 Partly cloudy - 26.2 1006.2 0.2
31/02:00am NE 2 4 - - - - 10 Partly cloudy - 26.5 1006.6 0.2
31/01:30am E 1 5 - - - - 10 Partly cloudy - 26.7 1007.0 0.2

Other formats

Comma delimited format used in spreadsheet applications
http://www.bom.gov.au/fwo/IDQ60701/IDQ60701.94170.axf

JavaScript Object Notation format (JSON) in row-major order
http://www.bom.gov.au/fwo/IDQ60701/IDQ60701.94170.json

Data quality

Most of these data are generated automatically and are frequently updated. Quality checks on data are not normally performed. It is possible for incorrect values to appear. Refer to information at About Latest Weather Observations and please check the disclaimer before using these data.